Avon, MT

2:41 AM MDT on July 29, 2014 (GMT -0600)
APRSWXNET Lincoln MT US (MC1904) Elev 4553 ft | 46.95 °N, 112.69 °W | Change Station

Current weather conditions updated 40 minutes ago

Clear
Clear
56 °F
Feels Like 56 °F
N
0
Wind Variable Wind from SE
Gusts 0.0 mph

Today is forecast to be nearly the same temperature as yesterday. Partly cloudy, chance of a thunderstorm.

Today
High -- | Low -- °F
--% Chance of Precip.
Yesterday
High -- | Low -- °F
Precip. -- in
6:07 AM 9:06 PM
Waxing Crescent, 5% visible
Pressure 30.10 in
Visibility 10.0 miles
Clouds Clear
Dew Point 49 °F
Humidity 77%
Rainfall 0.00 in
Snow Depth Not available.
UV 0 out of 12
Pollen 5.50 out of 12
Air Quality Not available.
Flu Activity Not available.
METAR KHLN 290753Z AUTO 24008KT 10SM CLR 23/04 A3018 RMK AO2 SLP192 T02330044

More Conditions Fewer Conditions

Pressure 30.10 in
Visibility 10.0 miles
Clouds Clear
Dew Point 49 °F
Humidity 77%
Rainfall 0.00 in
Snow Depth Not available.
UV 0 out of 12
Pollen 5.50 out of 12
Air Quality Not available.
Flu Activity Not available.
METAR KHLN 290753Z AUTO 24008KT 10SM CLR 23/04 A3018 RMK AO2 SLP192 T02330044

More Conditions Fewer Conditions

10-Day Weather Forecast

Almanac

Astronomy

Jul. 29, 2014 Rise Set
Actual Time 6:07 AM MDT 9:06 PM MDT
Civil Twilight 5:31 AM MDT 9:42 PM MDT
Nautical Twilight 4:45 AM MDT 10:27 PM MDT
Astronomical Twilight 3:50 AM MDT 11:22 PM MDT
Moon 9:01 AM MDT 10:05 PM MDT
Length of Visible Light 16h 10m
Length of Day
14h 59m
Tomorrow will be 2m 29s shorter.
Waxing Crescent, 5% of the Moon is Illuminated
Today
Waxing Crescent
Aug 3
First Quarter
Aug 10
Full
Aug 17
Last Quarter
Aug 25
New

Today's Extremes

State Highs State Lows

Community

WunderPhotos

Upload Photos

1,738,655 photos uploaded!

Nearby

Snow Depth

Station Depth Elevation
Wood Creek 1 in 5960 ft
Barker Lakes 0 in 8250 ft
Peterson Meadows 0 in 7200 ft
Tizer Basin 1 in 6840 ft
Stuart Mountain 0 in 7400 ft

Earthquake Activity

City Distance Mag. Time & Date
Townsend, Montana 74 miles 3.5 5:55 PM MDT
2014-07-23
Minimum magnitude displayed is 2.5.

Coastal Water Temperatures

Place Temperature
No Stations Reporting

Nearby Weather Stations

Station Location Temp. Dew Point Humidity Wind Precip. Elev Updated Type
APRSWXNET Lincoln MT , Lincoln, MT 56 °F 49 °F 77% SE  at  0 mph 0.00 in / hr 4553 ft 2:01 AM MDT MADIS
RAWS LINCOLN MT, Lincoln, MT 53 °F 46 °F 78% North  at  0 mph 0.00 in / hr 4597 ft 2:03 AM MDT MADIS
Timberline Drive, Gold Creek, MT 60.2 °F 45 °F 57% West  at  0.0 mph 0.00 in / hr 4872 ft 2:40 AM MDT Normal
Flesher Pass, Montana, MT 60.8 °F 43 °F 51% West  at  3.2 mph - / hr 5364 ft 2:30 AM MDT Normal

Show More Stations Show Fewer Stations